sensor_id;sensor_type;location;lat;lon;timestamp;P1;durP1;ratioP1;P2;durP2;ratioP2
46407;SDS011;32110;45.724;21.276;2023-11-19T00:01:34;15.00;;;7.90;;
46407;SDS011;32110;45.724;21.276;2023-11-19T00:03:59;16.40;;;7.93;;
46407;SDS011;32110;45.724;21.276;2023-11-19T00:06:24;16.63;;;8.37;;
46407;SDS011;32110;45.724;21.276;2023-11-19T00:08:50;13.63;;;7.35;;
46407;SDS011;32110;45.724;21.276;2023-11-19T00:11:15;11.77;;;6.72;;
46407;SDS011;32110;45.724;21.276;2023-11-19T00:13:41;13.25;;;7.15;;
46407;SDS011;32110;45.724;21.276;2023-11-19T00:16:06;12.20;;;6.90;;
46407;SDS011;32110;45.724;21.276;2023-11-19T00:18:32;12.27;;;7.15;;
46407;SDS011;32110;45.724;21.276;2023-11-19T00:20:57;11.63;;;6.95;;
46407;SDS011;32110;45.724;21.276;2023-11-19T00:23:23;12.67;;;6.67;;
46407;SDS011;32110;45.724;21.276;2023-11-19T00:25:48;13.83;;;7.70;;
46407;SDS011;32110;45.724;21.276;2023-11-19T00:28:13;11.87;;;7.10;;
46407;SDS011;32110;45.724;21.276;2023-11-19T00:30:38;13.10;;;7.17;;
46407;SDS011;32110;45.724;21.276;2023-11-19T00:33:05;11.65;;;6.82;;
46407;SDS011;32110;45.724;21.276;2023-11-19T00:35:31;15.23;;;7.00;;
46407;SDS011;32110;45.724;21.276;2023-11-19T00:37:57;12.15;;;6.60;;
46407;SDS011;32110;45.724;21.276;2023-11-19T00:40:23;14.25;;;7.15;;
46407;SDS011;32110;45.724;21.276;2023-11-19T00:42:49;13.00;;;6.95;;
46407;SDS011;32110;45.724;21.276;2023-11-19T00:45:14;11.38;;;6.30;;
46407;SDS011;32110;45.724;21.276;2023-11-19T00:47:40;13.23;;;7.28;;
46407;SDS011;32110;45.724;21.276;2023-11-19T00:50:05;13.80;;;6.80;;
46407;SDS011;32110;45.724;21.276;2023-11-19T00:52:31;12.88;;;7.10;;
46407;SDS011;32110;45.724;21.276;2023-11-19T00:54:56;13.50;;;7.13;;
46407;SDS011;32110;45.724;21.276;2023-11-19T00:57:22;13.35;;;7.43;;
46407;SDS011;32110;45.724;21.276;2023-11-19T00:59:47;13.13;;;7.18;;
46407;SDS011;32110;45.724;21.276;2023-11-19T01:02:12;14.23;;;7.57;;
46407;SDS011;32110;45.724;21.276;2023-11-19T01:04:39;11.88;;;6.88;;
46407;SDS011;32110;45.724;21.276;2023-11-19T01:07:05;11.55;;;6.78;;
46407;SDS011;32110;45.724;21.276;2023-11-19T01:09:31;13.27;;;6.68;;
46407;SDS011;32110;45.724;21.276;2023-11-19T01:12:03;16.42;;;8.05;;
46407;SDS011;32110;45.724;21.276;2023-11-19T01:14:29;13.27;;;7.43;;
46407;SDS011;32110;45.724;21.276;2023-11-19T01:16:54;13.35;;;7.22;;
46407;SDS011;32110;45.724;21.276;2023-11-19T01:19:21;14.77;;;7.90;;
46407;SDS011;32110;45.724;21.276;2023-11-19T01:21:47;12.80;;;7.15;;
46407;SDS011;32110;45.724;21.276;2023-11-19T01:24:12;12.67;;;7.27;;
46407;SDS011;32110;45.724;21.276;2023-11-19T01:26:39;13.52;;;7.57;;
46407;SDS011;32110;45.724;21.276;2023-11-19T01:29:06;12.98;;;7.28;;
46407;SDS011;32110;45.724;21.276;2023-11-19T01:31:31;16.33;;;7.78;;
46407;SDS011;32110;45.724;21.276;2023-11-19T01:33:58;14.55;;;7.30;;
46407;SDS011;32110;45.724;21.276;2023-11-19T01:36:24;14.60;;;7.20;;
46407;SDS011;32110;45.724;21.276;2023-11-19T01:38:49;14.67;;;7.43;;
46407;SDS011;32110;45.724;21.276;2023-11-19T01:41:15;14.15;;;7.38;;
46407;SDS011;32110;45.724;21.276;2023-11-19T01:43:40;13.05;;;7.32;;
46407;SDS011;32110;45.724;21.276;2023-11-19T01:46:12;14.25;;;7.40;;
46407;SDS011;32110;45.724;21.276;2023-11-19T01:48:39;14.40;;;7.38;;
46407;SDS011;32110;45.724;21.276;2023-11-19T01:51:06;13.40;;;7.25;;
46407;SDS011;32110;45.724;21.276;2023-11-19T01:53:31;15.30;;;7.55;;
46407;SDS011;32110;45.724;21.276;2023-11-19T01:55:57;14.63;;;7.47;;
46407;SDS011;32110;45.724;21.276;2023-11-19T01:58:23;14.38;;;7.53;;
46407;SDS011;32110;45.724;21.276;2023-11-19T02:00:48;11.45;;;7.03;;
46407;SDS011;32110;45.724;21.276;2023-11-19T02:03:14;13.53;;;7.40;;
46407;SDS011;32110;45.724;21.276;2023-11-19T02:05:39;13.20;;;7.10;;
46407;SDS011;32110;45.724;21.276;2023-11-19T02:08:05;13.57;;;7.13;;
46407;SDS011;32110;45.724;21.276;2023-11-19T02:10:30;13.98;;;7.28;;
46407;SDS011;32110;45.724;21.276;2023-11-19T02:12:57;12.90;;;6.95;;
46407;SDS011;32110;45.724;21.276;2023-11-19T02:15:22;12.32;;;7.00;;
46407;SDS011;32110;45.724;21.276;2023-11-19T02:17:49;11.45;;;6.95;;
46407;SDS011;32110;45.724;21.276;2023-11-19T02:20:14;14.25;;;7.55;;
46407;SDS011;32110;45.724;21.276;2023-11-19T02:22:40;15.48;;;7.13;;
46407;SDS011;32110;45.724;21.276;2023-11-19T02:25:12;12.18;;;6.68;;
46407;SDS011;32110;45.724;21.276;2023-11-19T02:27:53;13.32;;;7.40;;
46407;SDS011;32110;45.724;21.276;2023-11-19T02:30:22;11.80;;;7.22;;
46407;SDS011;32110;45.724;21.276;2023-11-19T02:32:54;13.15;;;6.97;;
46407;SDS011;32110;45.724;21.276;2023-11-19T02:35:22;12.98;;;7.28;;
46407;SDS011;32110;45.724;21.276;2023-11-19T02:37:47;13.82;;;7.63;;
46407;SDS011;32110;45.724;21.276;2023-11-19T02:40:13;12.70;;;7.18;;
46407;SDS011;32110;45.724;21.276;2023-11-19T02:42:38;15.38;;;7.60;;
46407;SDS011;32110;45.724;21.276;2023-11-19T02:45:04;12.50;;;7.05;;
46407;SDS011;32110;45.724;21.276;2023-11-19T02:47:31;15.05;;;7.53;;
46407;SDS011;32110;45.724;21.276;2023-11-19T02:49:56;13.60;;;7.53;;
46407;SDS011;32110;45.724;21.276;2023-11-19T02:52:22;15.52;;;7.95;;
46407;SDS011;32110;45.724;21.276;2023-11-19T02:54:48;15.68;;;7.68;;
46407;SDS011;32110;45.724;21.276;2023-11-19T02:57:13;14.57;;;7.77;;
46407;SDS011;32110;45.724;21.276;2023-11-19T02:59:39;15.52;;;7.90;;
46407;SDS011;32110;45.724;21.276;2023-11-19T03:02:06;15.95;;;7.70;;
46407;SDS011;32110;45.724;21.276;2023-11-19T03:04:32;16.55;;;8.15;;
46407;SDS011;32110;45.724;21.276;2023-11-19T03:06:58;16.83;;;8.38;;
46407;SDS011;32110;45.724;21.276;2023-11-19T03:09:23;18.30;;;8.43;;
46407;SDS011;32110;45.724;21.276;2023-11-19T03:11:49;14.25;;;7.72;;
46407;SDS011;32110;45.724;21.276;2023-11-19T03:14:14;15.35;;;8.32;;
46407;SDS011;32110;45.724;21.276;2023-11-19T03:16:40;14.50;;;7.80;;
46407;SDS011;32110;45.724;21.276;2023-11-19T03:19:05;13.87;;;7.40;;
46407;SDS011;32110;45.724;21.276;2023-11-19T03:21:30;14.75;;;7.63;;
46407;SDS011;32110;45.724;21.276;2023-11-19T03:23:56;16.10;;;8.07;;
46407;SDS011;32110;45.724;21.276;2023-11-19T03:26:21;15.25;;;7.75;;
46407;SDS011;32110;45.724;21.276;2023-11-19T03:28:47;17.02;;;8.30;;
46407;SDS011;32110;45.724;21.276;2023-11-19T03:31:12;16.02;;;8.15;;
46407;SDS011;32110;45.724;21.276;2023-11-19T03:33:38;14.60;;;8.13;;
46407;SDS011;32110;45.724;21.276;2023-11-19T03:36:03;15.35;;;7.88;;
46407;SDS011;32110;45.724;21.276;2023-11-19T03:38:28;13.60;;;7.90;;
46407;SDS011;32110;45.724;21.276;2023-11-19T03:40:54;13.35;;;7.97;;
46407;SDS011;32110;45.724;21.276;2023-11-19T03:43:19;16.00;;;8.10;;
46407;SDS011;32110;45.724;21.276;2023-11-19T03:45:44;17.77;;;7.80;;
46407;SDS011;32110;45.724;21.276;2023-11-19T03:48:09;13.63;;;7.75;;
46407;SDS011;32110;45.724;21.276;2023-11-19T03:50:35;13.43;;;7.80;;
46407;SDS011;32110;45.724;21.276;2023-11-19T03:53:00;17.17;;;8.50;;
46407;SDS011;32110;45.724;21.276;2023-11-19T03:55:25;14.38;;;7.50;;
46407;SDS011;32110;45.724;21.276;2023-11-19T03:57:50;13.63;;;7.57;;
46407;SDS011;32110;45.724;21.276;2023-11-19T04:00:16;15.70;;;7.93;;
46407;SDS011;32110;45.724;21.276;2023-11-19T04:02:41;16.05;;;7.70;;
46407;SDS011;32110;45.724;21.276;2023-11-19T04:05:06;15.32;;;8.95;;
46407;SDS011;32110;45.724;21.276;2023-11-19T04:07:32;20.13;;;9.80;;
46407;SDS011;32110;45.724;21.276;2023-11-19T04:09:57;17.70;;;9.70;;
46407;SDS011;32110;45.724;21.276;2023-11-19T04:12:23;17.05;;;9.50;;
46407;SDS011;32110;45.724;21.276;2023-11-19T04:14:48;16.20;;;9.18;;
46407;SDS011;32110;45.724;21.276;2023-11-19T04:17:13;16.95;;;9.52;;
46407;SDS011;32110;45.724;21.276;2023-11-19T04:19:38;18.13;;;8.80;;
46407;SDS011;32110;45.724;21.276;2023-11-19T04:22:06;14.50;;;8.43;;
46407;SDS011;32110;45.724;21.276;2023-11-19T04:24:31;15.80;;;8.77;;
46407;SDS011;32110;45.724;21.276;2023-11-19T04:26:57;17.13;;;8.60;;
46407;SDS011;32110;45.724;21.276;2023-11-19T04:29:22;15.85;;;8.18;;
46407;SDS011;32110;45.724;21.276;2023-11-19T04:31:48;15.75;;;8.85;;
46407;SDS011;32110;45.724;21.276;2023-11-19T04:34:13;16.73;;;8.27;;
46407;SDS011;32110;45.724;21.276;2023-11-19T04:36:38;13.65;;;7.88;;
46407;SDS011;32110;45.724;21.276;2023-11-19T04:39:04;17.23;;;8.25;;
46407;SDS011;32110;45.724;21.276;2023-11-19T04:41:50;13.88;;;8.18;;
46407;SDS011;32110;45.724;21.276;2023-11-19T04:44:17;15.57;;;8.32;;
46407;SDS011;32110;45.724;21.276;2023-11-19T04:46:42;16.13;;;8.53;;
46407;SDS011;32110;45.724;21.276;2023-11-19T04:49:11;17.55;;;8.32;;
46407;SDS011;32110;45.724;21.276;2023-11-19T04:51:40;18.13;;;8.20;;
46407;SDS011;32110;45.724;21.276;2023-11-19T04:56:31;15.02;;;7.93;;
46407;SDS011;32110;45.724;21.276;2023-11-19T04:58:57;16.87;;;8.77;;
46407;SDS011;32110;45.724;21.276;2023-11-19T05:01:22;17.97;;;9.20;;
46407;SDS011;32110;45.724;21.276;2023-11-19T05:03:47;19.30;;;9.07;;
46407;SDS011;32110;45.724;21.276;2023-11-19T05:06:12;15.77;;;9.10;;
46407;SDS011;32110;45.724;21.276;2023-11-19T05:08:38;17.52;;;8.60;;
46407;SDS011;32110;45.724;21.276;2023-11-19T05:11:03;19.38;;;9.77;;
46407;SDS011;32110;45.724;21.276;2023-11-19T05:13:28;16.40;;;9.23;;
46407;SDS011;32110;45.724;21.276;2023-11-19T05:15:54;16.90;;;9.10;;
46407;SDS011;32110;45.724;21.276;2023-11-19T05:18:19;18.37;;;9.77;;
46407;SDS011;32110;45.724;21.276;2023-11-19T05:20:45;21.63;;;10.93;;
46407;SDS011;32110;45.724;21.276;2023-11-19T05:23:10;24.10;;;11.38;;
46407;SDS011;32110;45.724;21.276;2023-11-19T05:25:36;16.90;;;9.17;;
46407;SDS011;32110;45.724;21.276;2023-11-19T05:28:01;17.95;;;8.95;;
46407;SDS011;32110;45.724;21.276;2023-11-19T05:30:26;18.77;;;9.23;;
46407;SDS011;32110;45.724;21.276;2023-11-19T05:32:52;18.33;;;8.97;;
46407;SDS011;32110;45.724;21.276;2023-11-19T05:35:17;18.13;;;8.37;;
46407;SDS011;32110;45.724;21.276;2023-11-19T05:37:42;17.17;;;8.90;;
46407;SDS011;32110;45.724;21.276;2023-11-19T05:40:08;18.02;;;9.52;;
46407;SDS011;32110;45.724;21.276;2023-11-19T05:42:42;17.70;;;8.82;;
46407;SDS011;32110;45.724;21.276;2023-11-19T05:45:08;18.88;;;9.57;;
46407;SDS011;32110;45.724;21.276;2023-11-19T05:47:34;16.70;;;8.88;;
46407;SDS011;32110;45.724;21.276;2023-11-19T05:49:59;16.45;;;9.32;;
46407;SDS011;32110;45.724;21.276;2023-11-19T05:52:25;15.50;;;8.33;;
46407;SDS011;32110;45.724;21.276;2023-11-19T05:54:50;17.20;;;8.60;;
46407;SDS011;32110;45.724;21.276;2023-11-19T05:57:17;15.93;;;8.88;;
46407;SDS011;32110;45.724;21.276;2023-11-19T05:59:47;15.93;;;9.00;;
46407;SDS011;32110;45.724;21.276;2023-11-19T06:02:13;16.98;;;9.18;;
46407;SDS011;32110;45.724;21.276;2023-11-19T06:04:38;16.40;;;8.80;;
46407;SDS011;32110;45.724;21.276;2023-11-19T06:07:03;18.48;;;8.75;;
46407;SDS011;32110;45.724;21.276;2023-11-19T06:09:30;17.83;;;9.40;;
46407;SDS011;32110;45.724;21.276;2023-11-19T06:11:55;21.90;;;9.77;;
46407;SDS011;32110;45.724;21.276;2023-11-19T06:14:22;18.98;;;10.18;;
46407;SDS011;32110;45.724;21.276;2023-11-19T06:16:49;21.65;;;10.07;;
46407;SDS011;32110;45.724;21.276;2023-11-19T06:19:14;16.90;;;8.82;;
46407;SDS011;32110;45.724;21.276;2023-11-19T06:21:39;20.33;;;9.18;;
46407;SDS011;32110;45.724;21.276;2023-11-19T06:24:05;16.30;;;9.15;;
46407;SDS011;32110;45.724;21.276;2023-11-19T06:26:30;14.30;;;8.38;;
46407;SDS011;32110;45.724;21.276;2023-11-19T06:28:55;16.90;;;9.10;;
46407;SDS011;32110;45.724;21.276;2023-11-19T06:31:21;17.65;;;9.38;;
46407;SDS011;32110;45.724;21.276;2023-11-19T06:33:46;21.23;;;10.77;;
46407;SDS011;32110;45.724;21.276;2023-11-19T06:36:14;18.80;;;10.63;;
46407;SDS011;32110;45.724;21.276;2023-11-19T06:38:41;26.00;;;12.25;;
46407;SDS011;32110;45.724;21.276;2023-11-19T06:41:07;22.30;;;11.75;;
46407;SDS011;32110;45.724;21.276;2023-11-19T06:43:33;22.70;;;11.38;;
46407;SDS011;32110;45.724;21.276;2023-11-19T06:45:58;25.88;;;13.52;;
46407;SDS011;32110;45.724;21.276;2023-11-19T06:48:24;25.55;;;13.02;;
46407;SDS011;32110;45.724;21.276;2023-11-19T06:50:49;23.40;;;12.07;;
46407;SDS011;32110;45.724;21.276;2023-11-19T06:53:14;41.40;;;17.27;;
46407;SDS011;32110;45.724;21.276;2023-11-19T06:55:40;54.45;;;20.92;;
46407;SDS011;32110;45.724;21.276;2023-11-19T06:58:05;59.40;;;21.37;;
46407;SDS011;32110;45.724;21.276;2023-11-19T07:00:32;29.58;;;14.25;;
46407;SDS011;32110;45.724;21.276;2023-11-19T07:02:58;26.88;;;13.07;;
46407;SDS011;32110;45.724;21.276;2023-11-19T07:05:23;33.30;;;15.77;;
46407;SDS011;32110;45.724;21.276;2023-11-19T07:07:49;49.75;;;21.30;;
46407;SDS011;32110;45.724;21.276;2023-11-19T07:10:14;32.28;;;15.65;;
46407;SDS011;32110;45.724;21.276;2023-11-19T07:12:40;24.52;;;12.70;;
46407;SDS011;32110;45.724;21.276;2023-11-19T07:15:07;22.63;;;11.85;;
46407;SDS011;32110;45.724;21.276;2023-11-19T07:17:33;29.52;;;13.90;;
46407;SDS011;32110;45.724;21.276;2023-11-19T07:20:00;29.52;;;14.57;;
46407;SDS011;32110;45.724;21.276;2023-11-19T07:22:25;32.15;;;14.93;;
46407;SDS011;32110;45.724;21.276;2023-11-19T07:24:50;31.90;;;15.55;;
46407;SDS011;32110;45.724;21.276;2023-11-19T07:27:16;32.15;;;13.50;;
46407;SDS011;32110;45.724;21.276;2023-11-19T07:29:43;26.88;;;12.90;;
46407;SDS011;32110;45.724;21.276;2023-11-19T07:32:08;21.38;;;11.65;;
46407;SDS011;32110;45.724;21.276;2023-11-19T07:34:33;24.77;;;12.70;;
46407;SDS011;32110;45.724;21.276;2023-11-19T07:36:59;24.33;;;12.93;;
46407;SDS011;32110;45.724;21.276;2023-11-19T07:39:28;24.83;;;13.18;;
46407;SDS011;32110;45.724;21.276;2023-11-19T07:41:53;28.70;;;14.18;;
46407;SDS011;32110;45.724;21.276;2023-11-19T07:44:19;28.23;;;14.35;;
46407;SDS011;32110;45.724;21.276;2023-11-19T07:46:44;26.08;;;13.52;;
46407;SDS011;32110;45.724;21.276;2023-11-19T07:49:10;26.88;;;13.75;;
46407;SDS011;32110;45.724;21.276;2023-11-19T07:51:35;27.38;;;13.10;;
46407;SDS011;32110;45.724;21.276;2023-11-19T07:54:01;24.70;;;12.05;;
46407;SDS011;32110;45.724;21.276;2023-11-19T07:56:26;28.13;;;12.90;;
46407;SDS011;32110;45.724;21.276;2023-11-19T07:58:52;24.02;;;11.93;;
46407;SDS011;32110;45.724;21.276;2023-11-19T08:01:17;22.92;;;12.30;;
46407;SDS011;32110;45.724;21.276;2023-11-19T08:03:43;30.23;;;13.77;;
46407;SDS011;32110;45.724;21.276;2023-11-19T08:06:08;29.58;;;14.15;;
46407;SDS011;32110;45.724;21.276;2023-11-19T08:08:33;27.70;;;14.05;;
46407;SDS011;32110;45.724;21.276;2023-11-19T08:10:59;28.73;;;15.15;;
46407;SDS011;32110;45.724;21.276;2023-11-19T08:13:25;30.52;;;13.68;;
46407;SDS011;32110;45.724;21.276;2023-11-19T08:15:50;25.73;;;14.25;;
46407;SDS011;32110;45.724;21.276;2023-11-19T08:18:16;28.75;;;13.82;;
46407;SDS011;32110;45.724;21.276;2023-11-19T08:20:41;24.53;;;13.23;;
46407;SDS011;32110;45.724;21.276;2023-11-19T08:23:09;26.33;;;13.50;;
46407;SDS011;32110;45.724;21.276;2023-11-19T08:25:34;28.10;;;13.60;;
46407;SDS011;32110;45.724;21.276;2023-11-19T08:27:59;24.27;;;13.57;;
46407;SDS011;32110;45.724;21.276;2023-11-19T08:30:25;23.92;;;12.73;;
46407;SDS011;32110;45.724;21.276;2023-11-19T08:32:50;26.37;;;12.63;;
46407;SDS011;32110;45.724;21.276;2023-11-19T08:35:15;26.07;;;12.43;;
46407;SDS011;32110;45.724;21.276;2023-11-19T08:37:41;26.35;;;13.32;;
46407;SDS011;32110;45.724;21.276;2023-11-19T08:40:07;23.23;;;12.50;;
46407;SDS011;32110;45.724;21.276;2023-11-19T08:42:32;25.95;;;13.40;;
46407;SDS011;32110;45.724;21.276;2023-11-19T08:44:58;22.23;;;12.30;;
46407;SDS011;32110;45.724;21.276;2023-11-19T08:47:23;23.52;;;11.38;;
46407;SDS011;32110;45.724;21.276;2023-11-19T08:49:51;24.05;;;12.30;;
46407;SDS011;32110;45.724;21.276;2023-11-19T08:52:17;26.67;;;12.90;;
46407;SDS011;32110;45.724;21.276;2023-11-19T08:54:42;23.05;;;11.63;;
46407;SDS011;32110;45.724;21.276;2023-11-19T08:57:08;22.30;;;11.25;;
46407;SDS011;32110;45.724;21.276;2023-11-19T08:59:34;20.20;;;11.25;;
46407;SDS011;32110;45.724;21.276;2023-11-19T09:01:59;17.95;;;10.57;;
46407;SDS011;32110;45.724;21.276;2023-11-19T09:04:24;21.90;;;11.60;;
46407;SDS011;32110;45.724;21.276;2023-11-19T09:06:49;22.47;;;11.17;;
46407;SDS011;32110;45.724;21.276;2023-11-19T09:09:15;19.57;;;9.93;;
46407;SDS011;32110;45.724;21.276;2023-11-19T09:11:40;16.85;;;9.98;;
46407;SDS011;32110;45.724;21.276;2023-11-19T09:14:06;20.15;;;10.65;;
46407;SDS011;32110;45.724;21.276;2023-11-19T09:16:31;19.45;;;10.82;;
46407;SDS011;32110;45.724;21.276;2023-11-19T09:18:57;19.52;;;10.93;;
46407;SDS011;32110;45.724;21.276;2023-11-19T09:21:23;21.83;;;10.93;;
46407;SDS011;32110;45.724;21.276;2023-11-19T09:23:48;16.60;;;9.70;;
46407;SDS011;32110;45.724;21.276;2023-11-19T09:26:14;18.40;;;10.15;;
46407;SDS011;32110;45.724;21.276;2023-11-19T09:28:39;19.00;;;10.00;;
46407;SDS011;32110;45.724;21.276;2023-11-19T09:31:16;15.23;;;8.60;;
46407;SDS011;32110;45.724;21.276;2023-11-19T09:33:42;16.02;;;9.65;;
46407;SDS011;32110;45.724;21.276;2023-11-19T09:36:08;17.45;;;9.32;;
46407;SDS011;32110;45.724;21.276;2023-11-19T09:38:33;17.08;;;9.45;;
46407;SDS011;32110;45.724;21.276;2023-11-19T09:40:59;16.67;;;9.43;;
46407;SDS011;32110;45.724;21.276;2023-11-19T09:43:26;18.02;;;9.32;;
46407;SDS011;32110;45.724;21.276;2023-11-19T09:45:53;14.55;;;8.68;;
46407;SDS011;32110;45.724;21.276;2023-11-19T09:48:19;14.93;;;8.57;;
46407;SDS011;32110;45.724;21.276;2023-11-19T09:50:46;16.25;;;9.27;;
46407;SDS011;32110;45.724;21.276;2023-11-19T09:53:12;16.75;;;9.07;;
46407;SDS011;32110;45.724;21.276;2023-11-19T09:55:37;16.17;;;9.32;;
46407;SDS011;32110;45.724;21.276;2023-11-19T09:58:02;16.27;;;9.20;;
46407;SDS011;32110;45.724;21.276;2023-11-19T10:00:28;15.98;;;8.80;;
46407;SDS011;32110;45.724;21.276;2023-11-19T10:02:54;14.35;;;8.82;;
46407;SDS011;32110;45.724;21.276;2023-11-19T10:05:22;15.05;;;8.75;;
46407;SDS011;32110;45.724;21.276;2023-11-19T10:07:48;14.07;;;7.60;;
46407;SDS011;32110;45.724;21.276;2023-11-19T10:10:14;13.65;;;7.38;;
46407;SDS011;32110;45.724;21.276;2023-11-19T10:12:43;13.27;;;8.10;;
46407;SDS011;32110;45.724;21.276;2023-11-19T10:15:09;13.38;;;7.50;;
46407;SDS011;32110;45.724;21.276;2023-11-19T10:17:42;12.50;;;7.65;;
46407;SDS011;32110;45.724;21.276;2023-11-19T10:20:07;12.17;;;7.27;;
46407;SDS011;32110;45.724;21.276;2023-11-19T10:22:36;13.73;;;7.82;;
46407;SDS011;32110;45.724;21.276;2023-11-19T10:25:01;14.55;;;8.55;;
46407;SDS011;32110;45.724;21.276;2023-11-19T10:27:27;14.57;;;8.45;;
46407;SDS011;32110;45.724;21.276;2023-11-19T10:29:52;17.17;;;8.38;;
46407;SDS011;32110;45.724;21.276;2023-11-19T10:32:18;12.27;;;7.57;;
46407;SDS011;32110;45.724;21.276;2023-11-19T10:34:43;13.43;;;8.15;;
46407;SDS011;32110;45.724;21.276;2023-11-19T10:37:09;14.57;;;8.18;;
46407;SDS011;32110;45.724;21.276;2023-11-19T10:39:52;13.02;;;8.00;;
46407;SDS011;32110;45.724;21.276;2023-11-19T10:42:19;14.43;;;8.52;;
46407;SDS011;32110;45.724;21.276;2023-11-19T10:44:45;14.02;;;8.45;;
46407;SDS011;32110;45.724;21.276;2023-11-19T10:47:10;16.10;;;9.55;;
46407;SDS011;32110;45.724;21.276;2023-11-19T10:49:35;15.68;;;9.15;;
46407;SDS011;32110;45.724;21.276;2023-11-19T10:52:01;16.10;;;8.52;;
46407;SDS011;32110;45.724;21.276;2023-11-19T10:54:26;11.75;;;7.68;;
46407;SDS011;32110;45.724;21.276;2023-11-19T10:56:55;12.77;;;7.60;;
46407;SDS011;32110;45.724;21.276;2023-11-19T10:59:23;14.70;;;7.63;;
46407;SDS011;32110;45.724;21.276;2023-11-19T11:01:50;12.23;;;7.75;;
46407;SDS011;32110;45.724;21.276;2023-11-19T11:04:26;11.65;;;7.32;;
46407;SDS011;32110;45.724;21.276;2023-11-19T11:06:56;18.13;;;9.10;;
46407;SDS011;32110;45.724;21.276;2023-11-19T11:09:23;14.52;;;8.15;;
46407;SDS011;32110;45.724;21.276;2023-11-19T11:11:49;14.10;;;7.65;;
46407;SDS011;32110;45.724;21.276;2023-11-19T11:14:15;11.32;;;7.22;;
46407;SDS011;32110;45.724;21.276;2023-11-19T11:16:42;13.10;;;7.43;;
46407;SDS011;32110;45.724;21.276;2023-11-19T11:19:07;13.00;;;7.45;;
46407;SDS011;32110;45.724;21.276;2023-11-19T11:21:34;12.68;;;7.65;;
46407;SDS011;32110;45.724;21.276;2023-11-19T11:24:04;12.43;;;7.20;;
46407;SDS011;32110;45.724;21.276;2023-11-19T11:29:10;11.37;;;7.17;;
46407;SDS011;32110;45.724;21.276;2023-11-19T11:31:44;11.70;;;7.20;;
46407;SDS011;32110;45.724;21.276;2023-11-19T11:39:35;13.43;;;7.72;;
46407;SDS011;32110;45.724;21.276;2023-11-19T11:45:04;11.88;;;7.85;;
46407;SDS011;32110;45.724;21.276;2023-11-19T11:50:18;13.02;;;8.07;;
46407;SDS011;32110;45.724;21.276;2023-11-19T11:57:50;12.77;;;7.57;;
46407;SDS011;32110;45.724;21.276;2023-11-19T12:00:31;17.23;;;7.97;;
46407;SDS011;32110;45.724;21.276;2023-11-19T12:03:00;14.05;;;7.90;;
46407;SDS011;32110;45.724;21.276;2023-11-19T12:05:26;13.60;;;8.23;;
46407;SDS011;32110;45.724;21.276;2023-11-19T12:07:57;14.43;;;8.30;;
46407;SDS011;32110;45.724;21.276;2023-11-19T12:10:24;13.85;;;8.10;;
46407;SDS011;32110;45.724;21.276;2023-11-19T12:12:52;15.77;;;8.07;;
46407;SDS011;32110;45.724;21.276;2023-11-19T12:15:17;14.68;;;8.43;;
46407;SDS011;32110;45.724;21.276;2023-11-19T12:17:50;14.27;;;8.85;;
46407;SDS011;32110;45.724;21.276;2023-11-19T12:20:16;14.18;;;8.32;;
46407;SDS011;32110;45.724;21.276;2023-11-19T12:22:42;15.15;;;8.82;;
46407;SDS011;32110;45.724;21.276;2023-11-19T12:25:09;13.57;;;8.02;;
46407;SDS011;32110;45.724;21.276;2023-11-19T12:27:35;15.23;;;9.15;;
46407;SDS011;32110;45.724;21.276;2023-11-19T12:30:01;14.68;;;9.57;;
46407;SDS011;32110;45.724;21.276;2023-11-19T12:32:36;13.70;;;8.02;;
46407;SDS011;32110;45.724;21.276;2023-11-19T12:35:02;12.63;;;8.00;;
46407;SDS011;32110;45.724;21.276;2023-11-19T12:37:28;15.27;;;9.13;;
46407;SDS011;32110;45.724;21.276;2023-11-19T12:39:54;14.63;;;9.15;;
46407;SDS011;32110;45.724;21.276;2023-11-19T12:42:19;14.17;;;8.40;;
46407;SDS011;32110;45.724;21.276;2023-11-19T12:44:54;17.23;;;9.13;;
46407;SDS011;32110;45.724;21.276;2023-11-19T12:47:21;14.38;;;8.63;;
46407;SDS011;32110;45.724;21.276;2023-11-19T12:49:55;14.17;;;8.63;;
46407;SDS011;32110;45.724;21.276;2023-11-19T12:52:20;15.32;;;9.27;;
46407;SDS011;32110;45.724;21.276;2023-11-19T12:54:45;14.53;;;8.87;;
46407;SDS011;32110;45.724;21.276;2023-11-19T12:57:11;19.60;;;9.13;;
46407;SDS011;32110;45.724;21.276;2023-11-19T12:59:36;14.30;;;8.82;;
46407;SDS011;32110;45.724;21.276;2023-11-19T13:02:01;14.95;;;9.05;;
46407;SDS011;32110;45.724;21.276;2023-11-19T13:04:30;17.23;;;9.55;;
46407;SDS011;32110;45.724;21.276;2023-11-19T13:06:56;15.65;;;9.30;;
46407;SDS011;32110;45.724;21.276;2023-11-19T13:09:25;16.48;;;9.65;;
46407;SDS011;32110;45.724;21.276;2023-11-19T13:11:50;16.05;;;9.45;;
46407;SDS011;32110;45.724;21.276;2023-11-19T13:14:16;14.65;;;8.77;;
46407;SDS011;32110;45.724;21.276;2023-11-19T13:16:42;13.37;;;8.40;;
46407;SDS011;32110;45.724;21.276;2023-11-19T13:19:07;14.77;;;8.77;;
46407;SDS011;32110;45.724;21.276;2023-11-19T13:21:33;15.38;;;8.45;;
46407;SDS011;32110;45.724;21.276;2023-11-19T13:23:59;12.63;;;8.05;;
46407;SDS011;32110;45.724;21.276;2023-11-19T13:26:24;13.82;;;8.18;;
46407;SDS011;32110;45.724;21.276;2023-11-19T13:28:50;15.75;;;8.27;;
46407;SDS011;32110;45.724;21.276;2023-11-19T13:31:15;17.10;;;9.10;;
46407;SDS011;32110;45.724;21.276;2023-11-19T13:33:41;15.73;;;8.88;;
46407;SDS011;32110;45.724;21.276;2023-11-19T13:36:06;17.50;;;9.68;;
46407;SDS011;32110;45.724;21.276;2023-11-19T13:38:33;14.88;;;8.93;;
46407;SDS011;32110;45.724;21.276;2023-11-19T13:40:59;14.43;;;8.77;;
46407;SDS011;32110;45.724;21.276;2023-11-19T13:43:25;15.95;;;9.73;;
46407;SDS011;32110;45.724;21.276;2023-11-19T13:45:50;15.95;;;8.35;;
46407;SDS011;32110;45.724;21.276;2023-11-19T13:48:15;15.27;;;8.43;;
46407;SDS011;32110;45.724;21.276;2023-11-19T13:50:41;14.75;;;8.55;;
46407;SDS011;32110;45.724;21.276;2023-11-19T13:53:07;14.98;;;8.40;;
46407;SDS011;32110;45.724;21.276;2023-11-19T13:55:33;13.13;;;8.10;;
46407;SDS011;32110;45.724;21.276;2023-11-19T13:57:58;14.52;;;8.52;;
46407;SDS011;32110;45.724;21.276;2023-11-19T14:00:23;14.27;;;8.43;;
46407;SDS011;32110;45.724;21.276;2023-11-19T14:02:49;14.38;;;7.75;;
46407;SDS011;32110;45.724;21.276;2023-11-19T14:05:14;12.63;;;7.65;;
46407;SDS011;32110;45.724;21.276;2023-11-19T14:07:42;13.60;;;7.97;;
46407;SDS011;32110;45.724;21.276;2023-11-19T14:10:08;16.08;;;8.50;;
46407;SDS011;32110;45.724;21.276;2023-11-19T14:12:36;16.50;;;7.85;;
46407;SDS011;32110;45.724;21.276;2023-11-19T14:15:02;14.90;;;8.65;;
46407;SDS011;32110;45.724;21.276;2023-11-19T14:17:29;15.00;;;9.23;;
46407;SDS011;32110;45.724;21.276;2023-11-19T14:19:54;15.07;;;8.82;;
46407;SDS011;32110;45.724;21.276;2023-11-19T14:22:20;15.77;;;8.60;;
46407;SDS011;32110;45.724;21.276;2023-11-19T14:24:45;16.23;;;8.87;;
46407;SDS011;32110;45.724;21.276;2023-11-19T14:27:10;17.13;;;9.37;;
46407;SDS011;32110;45.724;21.276;2023-11-19T14:29:36;14.85;;;8.93;;
46407;SDS011;32110;45.724;21.276;2023-11-19T14:32:02;15.40;;;8.90;;
46407;SDS011;32110;45.724;21.276;2023-11-19T14:34:28;16.27;;;9.45;;